Dauntless Aviation
Greetings, Guest! To participate, [sign up for a free account] or [log in]
Airports Europe United Kingdom
EGLC
LCY

London City

London, UNITED KINGDOM

Airport Info
Edit

Location

Latitude / Longitude: 51°30'18"N / 0°3'12"E
  51°30.3'N / 0°3.21'E
  51.5050 / 0.0535

Nearby radio navigation aids

LCY CITY NDB on field.

Runway Information

Runway 10 /28

Dimensions: 4948 x 98 ft.
Surface: ASP
 
Runway 10
Runway 28
Latitude: 51.505528 51.504922
Longitude: 0.045753 0.064953
Elevation: 16 ft. 16 ft.
Runway true heading: 91.1 271.1
 

Instrument Procedures

  Control Zone and Control Area Chart
  Aircraft Parking/Docking Chart
  Aerodrome Chart

STARs (Standard Terminal Arrivals)

  STAR via SPEAR (Northwest)
  STAR via ALKIN (South)
  STAR via SPEAR (East)
  STAR via SPEAR (West)
  STAR via SPEAR (Alternate Holding at LOGAN and ALKIN)

IAPs (Instrument Approach Procedures)

  LOC/DME/NDB (L) Rwy 27 (Aircraft CAT A/B/C)
  Visual Approach Profile Rwy 27
  ILS (5.5°GP) /DME/NDB (L) Rwy 27 (Aircraft CAT A/B/C)
  Visual Approach Profile Rwy 09
  LOC/DME/NDB (L) Rwy 09
  ATC Surveillance Minimum Altitude Chart
  ILS (5.5°GP) /DME/NDB (L) Rwy 09 (Aircraft CAT A/B/C)

Departure Procedures

  SID DOVER/LYDD
  SID CLACTON
  SID SOUTHAMPTON
  SID BROOKMANS PARK/COMPTON
Satellite photo at:
Airport distance calculator
From:
Weather Reports

METAR

EGLC

EGLC 272120Z 06006KT 9000 SCT009 10/09 Q1002
EGWU
17.8nm W
EGWU 272050Z AUTO 10006KT 8000 // FEW010/// 10/08 Q1002
EGLL
18.9nm SW
EGLL 272120Z 10005KT 7000 FEW017 10/08 Q1002 TEMPO BKN012
EGSS
23.5nm N
EGSS 272120Z 12007KT 3500 BR FEW003 SCT018 10/09 Q1003
EGKK
23.8nm S
EGKK 272120Z 08004KT 8000 FEW016 07/07 Q1002
EGMC
24.4nm NE
EGMC 272120Z 13007KT CAVOK 10/09 Q1002

TAF

EGLC
TAF EGLC 271700Z 2718/2722 13007KT 9999 SCT030 PROB30 TEMPO 2718/2722 5000 BR BKN011
EGKB
11.4nm S
TAF AMD EGKB 271920Z 2719/2721 15005KT 9999 BKN004 PROB40 2719/2721 4000 BR FEW007
EGWU
17.8nm W
TAF EGWU 271920Z 2721/2815 12005KT 9999 FEW012 BKN030 TEMPO 2721/2723 SCT012 BECMG 2723/2801 7000 HZ BKN007 TEMPO 2800/2810 4000 -DZ BKN004 BECMG 2812/2815 CAVOK
EGLL
18.9nm SW
TAF EGLL 271658Z 2718/2824 08007KT 9999 FEW012 SCT020 TEMPO 2718/2723 8000 SCT007 BKN014 BECMG 2723/2802 8000 SCT007 BKN012 PROB30 TEMPO 2805/2809 SCT004 BKN007 BECMG 2809/2812 9999 FEW022
EGSS
23.5nm N
TAF AMD EGSS 271800Z 2718/2824 16006KT 4000 BR BKN004 PROB40 TEMPO 2718/2722 6000 NSW SCT010 BECMG 2811/2814 9999 NSW SCT025 PROB30 2816/2824 5000 BR
EGKK
23.8nm S
TAF EGKK 271658Z 2718/2824 09006KT 9999 FEW010 SCT025 BECMG 2718/2721 7000 TEMPO 2718/2723 BKN010 PROB30 2721/2809 4000 BR BECMG 2723/2802 SCT004 BKN006 TEMPO 2803/2809 -DZ BKN004 BECMG 2809/2811 9999 BKN012 BECMG 2811/2813 CAVOK BECMG 2816/2819 7000
Safelog

 

Dauntless Aviation

© 2007-2014 Dauntless Aviation, all rights reserved
Information provided via PilotNav comes from a variety of official and unofficial data sources. As errors are possible, do not use PilotNav for primary flight planning purposes. Verify any information that you receive via PilotNav with current and canonical charts and other official documents. The material in this database is subject to database copyrights held by Dauntless Aviation and may not be copied without the express permission of Dauntless Aviation - licenses for use of part of all of this data are available for purchase; enquire via the Dauntless Aviation helpdesk. A number of mechanisms and markers exist in the database to protect against and identify infringement / copyright. Automated queries against this website are stictly prohibited, and all activity is logged and analyzed.